Terminal Aerodrome Forecast
Issued by NWS

Home | Current Version | Previous Version | Text Only | Print | Product List | Glossary Off
Versions: 1 2 3 4 5 6 7 8 9 10 11 12 13 14 15 16

547
FTUS43 KGRB 012321
TAFMTW
TAF
KMTW 012321Z 0200/0224 04009KT P6SM VCSH BKN030 BKN100
     FM020700 04010KT P6SM FEW040 SCT100
     FM021100 03007KT P6SM FEW060 SCT100
     FM021500 03006KT P6SM SCT060 SCT090=

USA.gov is the U.S. government's official web portal to all federal, state and local government web resources and services.